createdAt,value
2023-10-15T00:00:20.846Z,77.00
2023-10-15T00:02:49.886Z,77.10
2023-10-15T00:05:19.430Z,77.30
2023-10-15T00:07:50.769Z,77.50
2023-10-15T00:10:20.128Z,77.60
2023-10-15T00:12:49.832Z,77.40
2023-10-15T00:15:21.968Z,77.60
2023-10-15T00:17:53.836Z,77.60
2023-10-15T00:20:22.392Z,77.70
2023-10-15T00:22:52.221Z,77.60
2023-10-15T00:25:21.096Z,77.70
2023-10-15T00:27:54.282Z,78.00
2023-10-15T00:30:22.849Z,78.20
2023-10-15T00:32:50.769Z,78.50
2023-10-15T00:35:20.961Z,78.70
2023-10-15T00:37:58.096Z,79.10
2023-10-15T00:40:26.433Z,79.50
2023-10-15T00:42:53.733Z,79.60
2023-10-15T00:45:22.141Z,79.80
2023-10-15T00:48:09.389Z,80.10
2023-10-15T00:50:42.669Z,80.10
2023-10-15T00:53:23.250Z,80.20
2023-10-15T00:56:04.721Z,80.30
2023-10-15T00:58:40.694Z,80.40
2023-10-15T01:01:21.287Z,80.60
2023-10-15T01:03:55.995Z,80.80
2023-10-15T01:06:31.630Z,81.00
2023-10-15T01:09:02.373Z,81.10
2023-10-15T01:11:30.631Z,81.50
2023-10-15T01:13:58.505Z,81.60
2023-10-15T01:16:28.881Z,81.80
2023-10-15T01:19:01.015Z,81.70
2023-10-15T01:21:30.920Z,81.70
2023-10-15T01:24:07.182Z,81.80
2023-10-15T01:26:37.701Z,82.20
2023-10-15T01:29:07.828Z,82.00
2023-10-15T01:31:57.080Z,81.70
2023-10-15T01:34:24.263Z,81.80
2023-10-15T01:36:52.352Z,81.80
2023-10-15T01:39:33.978Z,81.80
2023-10-15T01:42:04.873Z,81.30
2023-10-15T01:44:32.202Z,81.10
2023-10-15T01:47:04.974Z,81.00
2023-10-15T01:49:35.261Z,81.00
2023-10-15T01:52:27.041Z,81.20
2023-10-15T01:54:54.653Z,81.70
2023-10-15T01:57:23.258Z,82.20
2023-10-15T01:59:56.937Z,82.40
2023-10-15T02:02:25.499Z,82.40
2023-10-15T02:04:58.504Z,82.60
2023-10-15T02:07:25.825Z,82.80
2023-10-15T02:09:52.724Z,82.60
2023-10-15T02:12:19.932Z,82.70
2023-10-15T02:14:49.093Z,82.60
2023-10-15T02:17:20.052Z,82.80
2023-10-15T02:19:49.129Z,82.90
2023-10-15T02:22:16.569Z,83.00
2023-10-15T02:24:49.218Z,83.00
2023-10-15T02:27:26.704Z,83.10
2023-10-15T02:29:53.702Z,83.10
2023-10-15T02:32:22.873Z,83.10
2023-10-15T02:34:53.205Z,83.10
2023-10-15T02:37:25.067Z,83.20
2023-10-15T02:39:52.166Z,83.10
2023-10-15T02:42:21.637Z,83.30
2023-10-15T02:44:54.895Z,83.40
2023-10-15T02:47:30.066Z,83.60
2023-10-15T02:50:01.834Z,83.70
2023-10-15T02:52:49.186Z,83.90
2023-10-15T02:55:18.001Z,83.90
2023-10-15T02:57:45.835Z,84.00
2023-10-15T03:00:15.268Z,84.00
2023-10-15T03:02:45.987Z,84.20
2023-10-15T03:05:16.982Z,84.40
2023-10-15T03:07:44.853Z,84.80
2023-10-15T03:10:13.459Z,85.00
2023-10-15T03:12:46.102Z,85.10
2023-10-15T03:15:17.687Z,84.90
2023-10-15T03:17:45.482Z,84.90
2023-10-15T03:20:19.190Z,85.00
2023-10-15T03:22:53.434Z,85.00
2023-10-15T03:25:21.535Z,85.10
2023-10-15T03:27:48.612Z,84.90
2023-10-15T03:30:16.621Z,84.80
2023-10-15T03:32:47.014Z,84.70
2023-10-15T03:35:28.952Z,84.70
2023-10-15T03:38:02.730Z,84.60
2023-10-15T03:40:34.124Z,84.80
2023-10-15T03:43:16.691Z,85.10
2023-10-15T03:45:53.479Z,85.20
2023-10-15T03:48:31.608Z,85.20
2023-10-15T03:50:59.696Z,85.00
2023-10-15T03:53:32.702Z,85.00
2023-10-15T03:56:02.726Z,85.00
2023-10-15T03:58:32.572Z,85.00
2023-10-15T04:01:18.545Z,85.00
2023-10-15T04:03:49.038Z,84.90
2023-10-15T04:06:18.000Z,84.80
2023-10-15T04:09:05.885Z,84.60
2023-10-15T04:11:43.647Z,84.40
2023-10-15T04:14:19.344Z,84.30
2023-10-15T04:16:48.272Z,84.40
2023-10-15T04:19:19.368Z,84.50
2023-10-15T04:21:48.110Z,84.50
2023-10-15T04:24:15.671Z,84.30
2023-10-15T04:26:44.073Z,83.90
2023-10-15T04:29:22.214Z,83.80
2023-10-15T04:32:01.524Z,83.90
2023-10-15T04:34:30.658Z,84.00
2023-10-15T04:36:58.441Z,83.90
2023-10-15T04:39:45.596Z,83.70
2023-10-15T04:42:21.327Z,83.60
2023-10-15T04:44:51.429Z,83.40
2023-10-15T04:47:40.223Z,83.30
2023-10-15T04:50:16.174Z,83.20
2023-10-15T04:52:46.141Z,83.30
2023-10-15T04:55:15.024Z,83.30
2023-10-15T04:57:41.962Z,83.40
2023-10-15T05:00:09.022Z,83.50
2023-10-15T05:02:35.937Z,83.70
2023-10-15T05:05:06.728Z,83.80
2023-10-15T05:07:34.151Z,83.80
2023-10-15T05:10:01.056Z,84.00
2023-10-15T05:12:29.634Z,84.20
2023-10-15T05:14:56.581Z,84.40
2023-10-15T05:17:23.737Z,84.70
2023-10-15T05:19:54.364Z,85.10
2023-10-15T05:22:22.109Z,85.50
2023-10-15T05:24:49.298Z,85.60
2023-10-15T05:27:16.154Z,85.80
2023-10-15T05:29:43.312Z,85.80
2023-10-15T05:32:10.230Z,85.80
2023-10-15T05:34:37.089Z,85.80
2023-10-15T05:37:04.025Z,85.70
2023-10-15T05:39:30.893Z,85.70
2023-10-15T05:41:57.716Z,85.50
2023-10-15T05:44:24.722Z,85.50
2023-10-15T05:46:51.750Z,85.50
2023-10-15T05:49:18.673Z,85.10
2023-10-15T05:51:46.212Z,85.20
2023-10-15T05:54:13.857Z,85.10
2023-10-15T05:56:40.824Z,85.00
2023-10-15T05:59:09.139Z,85.20
2023-10-15T06:01:36.131Z,85.30
2023-10-15T06:04:04.320Z,85.30
2023-10-15T06:06:31.309Z,85.20
2023-10-15T06:09:00.759Z,85.40
2023-10-15T06:11:28.835Z,85.60
2023-10-15T06:13:55.790Z,85.80
2023-10-15T06:16:22.699Z,85.90
2023-10-15T06:18:49.543Z,86.10
2023-10-15T06:21:17.115Z,86.10
2023-10-15T06:23:44.052Z,86.10
2023-10-15T06:26:11.932Z,86.40
2023-10-15T06:28:38.990Z,86.40
2023-10-15T06:31:06.223Z,86.40
2023-10-15T06:33:34.173Z,86.40
2023-10-15T06:36:00.981Z,86.50
2023-10-15T06:38:27.873Z,86.40
2023-10-15T06:40:54.719Z,86.40
2023-10-15T06:43:21.713Z,86.60
2023-10-15T06:45:48.652Z,86.60
2023-10-15T06:48:15.566Z,86.50
2023-10-15T06:50:42.682Z,86.40
2023-10-15T06:53:10.097Z,86.20
2023-10-15T06:55:37.125Z,85.90
2023-10-15T06:58:04.357Z,86.10
2023-10-15T07:00:33.249Z,86.20
2023-10-15T07:03:00.423Z,86.30
2023-10-15T07:05:28.158Z,86.40
2023-10-15T07:07:59.193Z,86.50
2023-10-15T07:10:27.224Z,86.80
2023-10-15T07:12:55.834Z,87.30
2023-10-15T07:15:23.172Z,87.70
2023-10-15T07:17:50.922Z,87.90
2023-10-15T07:20:36.565Z,87.40
2023-10-15T07:23:03.781Z,87.60
2023-10-15T07:25:31.039Z,88.20
2023-10-15T07:27:59.815Z,88.80
2023-10-15T07:30:27.378Z,89.10
2023-10-15T07:32:58.715Z,89.40
2023-10-15T07:35:27.822Z,90.00
2023-10-15T07:37:55.060Z,90.80
2023-10-15T07:40:23.850Z,91.10
2023-10-15T07:42:53.399Z,91.20
2023-10-15T07:45:22.251Z,90.80
2023-10-15T07:47:50.140Z,90.20
2023-10-15T07:50:19.243Z,89.00
2023-10-15T07:52:47.260Z,88.20
2023-10-15T07:55:14.913Z,87.70
2023-10-15T07:57:41.899Z,87.40
2023-10-15T08:00:16.039Z,87.30
2023-10-15T08:02:46.965Z,87.10
2023-10-15T08:05:14.547Z,86.80
2023-10-15T08:07:47.735Z,87.10
2023-10-15T08:10:18.152Z,87.10
2023-10-15T08:12:45.803Z,87.30
2023-10-15T08:15:12.707Z,87.60
2023-10-15T08:17:39.641Z,87.90
2023-10-15T08:20:10.489Z,88.00
2023-10-15T08:22:38.112Z,88.30
2023-10-15T08:25:05.270Z,88.50
2023-10-15T08:27:34.741Z,88.70
2023-10-15T08:30:01.597Z,88.90
2023-10-15T08:32:28.494Z,89.20
2023-10-15T08:34:55.443Z,89.20
2023-10-15T08:37:23.960Z,90.10
2023-10-15T08:39:50.893Z,91.30
2023-10-15T08:42:21.810Z,92.10
2023-10-15T08:44:57.880Z,95.00
2023-10-15T08:47:27.093Z,95.40
2023-10-15T08:49:56.426Z,98.90
2023-10-15T08:52:24.589Z,99.90
2023-10-15T08:54:53.086Z,99.90
2023-10-15T08:57:20.358Z,99.90
2023-10-15T08:59:48.707Z,99.90
2023-10-15T09:02:16.776Z,99.90
2023-10-15T09:04:46.375Z,99.90
2023-10-15T09:07:16.655Z,99.90
2023-10-15T09:09:43.916Z,98.00
2023-10-15T09:12:14.115Z,96.20
2023-10-15T09:14:46.550Z,83.30
2023-10-15T09:17:18.644Z,75.50
2023-10-15T09:19:50.205Z,74.30
2023-10-15T09:22:17.236Z,74.60
2023-10-15T09:24:44.528Z,75.50
2023-10-15T09:27:12.060Z,76.20
2023-10-15T09:29:39.820Z,78.30
2023-10-15T09:32:07.395Z,80.30
2023-10-15T09:34:39.229Z,82.40
2023-10-15T09:37:07.475Z,84.90
2023-10-15T09:39:35.800Z,83.70
2023-10-15T09:42:05.695Z,84.90
2023-10-15T09:44:34.045Z,84.70
2023-10-15T09:47:03.183Z,83.90
2023-10-15T09:49:34.360Z,83.30
2023-10-15T09:52:07.830Z,84.10
2023-10-15T09:54:35.191Z,85.20
2023-10-15T09:57:03.533Z,87.30
2023-10-15T09:59:33.243Z,93.90
2023-10-15T10:02:07.371Z,94.10
2023-10-15T10:04:44.658Z,90.10
2023-10-15T10:07:21.368Z,92.70
2023-10-15T10:10:07.064Z,89.60
2023-10-15T10:12:53.049Z,87.40
2023-10-15T10:15:29.790Z,82.00
2023-10-15T10:17:57.162Z,80.70
2023-10-15T10:20:37.158Z,76.70
2023-10-15T10:23:06.974Z,73.10
2023-10-15T10:25:43.900Z,73.50
2023-10-15T10:28:21.277Z,74.00
2023-10-15T10:31:01.703Z,75.70
2023-10-15T10:33:43.897Z,76.90
2023-10-15T10:36:15.036Z,78.10
2023-10-15T10:39:09.235Z,80.60
2023-10-15T10:41:40.126Z,89.50
2023-10-15T10:44:31.098Z,99.90
2023-10-15T10:46:58.358Z,99.90
2023-10-15T10:49:41.790Z,95.00
2023-10-15T10:52:16.281Z,86.20
2023-10-15T10:54:46.974Z,78.70
2023-10-15T10:57:19.293Z,73.30
2023-10-15T10:59:46.180Z,72.60
2023-10-15T11:02:15.557Z,69.60
2023-10-15T11:04:43.522Z,68.30
2023-10-15T11:07:12.438Z,73.10
2023-10-15T11:09:39.795Z,73.50
2023-10-15T11:12:10.514Z,68.50
2023-10-15T11:14:38.047Z,63.10
2023-10-15T11:17:07.138Z,60.80
2023-10-15T11:19:34.102Z,60.80
2023-10-15T11:22:00.999Z,59.60
2023-10-15T11:24:28.614Z,58.90
2023-10-15T11:26:56.262Z,58.50
2023-10-15T11:29:25.027Z,61.10
2023-10-15T11:31:57.086Z,60.70
2023-10-15T11:34:26.379Z,57.90
2023-10-15T11:36:57.590Z,56.60
2023-10-15T11:39:26.944Z,56.70
2023-10-15T11:41:57.736Z,57.00
2023-10-15T11:44:32.296Z,58.10
2023-10-15T11:47:11.350Z,58.60
2023-10-15T11:49:45.317Z,59.00
2023-10-15T11:52:19.724Z,60.50
2023-10-15T11:54:55.302Z,61.20
2023-10-15T11:57:26.688Z,61.80
2023-10-15T11:59:57.613Z,61.90
2023-10-15T12:02:27.849Z,66.10
2023-10-15T12:04:58.666Z,63.50
2023-10-15T12:07:26.008Z,62.10
2023-10-15T12:09:52.894Z,60.30
2023-10-15T12:12:19.990Z,56.80
2023-10-15T12:14:47.291Z,55.70
2023-10-15T12:17:17.608Z,57.00
2023-10-15T12:19:46.408Z,55.90
2023-10-15T12:22:16.306Z,56.20
2023-10-15T12:24:43.925Z,54.50
2023-10-15T12:27:11.044Z,53.80
2023-10-15T12:29:40.349Z,53.10
2023-10-15T12:32:10.098Z,55.50
2023-10-15T12:34:41.026Z,54.40
2023-10-15T12:37:08.681Z,51.70
2023-10-15T12:39:36.469Z,50.50
2023-10-15T12:42:06.653Z,53.20
2023-10-15T12:44:37.787Z,53.70
2023-10-15T12:47:05.259Z,52.50
2023-10-15T12:49:33.141Z,50.60
2023-10-15T12:52:00.157Z,49.10
2023-10-15T12:54:27.188Z,48.00
2023-10-15T12:56:54.896Z,47.50
2023-10-15T12:59:21.877Z,46.30
2023-10-15T13:01:49.246Z,46.00
2023-10-15T13:04:16.158Z,47.30
2023-10-15T13:06:42.931Z,47.80
2023-10-15T13:09:10.219Z,47.60
2023-10-15T13:11:37.988Z,49.10
2023-10-15T13:14:06.209Z,48.50
2023-10-15T13:16:33.102Z,46.10
2023-10-15T13:19:00.188Z,45.70
2023-10-15T13:21:27.139Z,44.90
2023-10-15T13:23:53.969Z,44.10
2023-10-15T13:26:20.783Z,43.50
2023-10-15T13:28:49.352Z,44.30
2023-10-15T13:31:16.192Z,45.20
2023-10-15T13:33:43.101Z,45.90
2023-10-15T13:36:10.460Z,49.90
2023-10-15T13:38:38.554Z,52.90
2023-10-15T13:41:06.523Z,52.90
2023-10-15T13:43:33.351Z,49.90
2023-10-15T13:46:00.182Z,46.60
2023-10-15T13:48:27.129Z,46.50
2023-10-15T13:50:54.057Z,47.40
2023-10-15T13:53:21.066Z,49.30
2023-10-15T13:55:47.913Z,50.20
2023-10-15T13:58:14.946Z,52.70
2023-10-15T14:00:41.866Z,53.50
2023-10-15T14:03:08.898Z,52.90
2023-10-15T14:05:39.807Z,52.40
2023-10-15T14:08:10.000Z,52.00
2023-10-15T14:10:39.005Z,50.70
2023-10-15T14:13:19.827Z,49.30
2023-10-15T14:15:48.214Z,48.10
2023-10-15T14:18:16.305Z,47.30
2023-10-15T14:20:44.172Z,46.00
2023-10-15T14:23:11.154Z,46.40
2023-10-15T14:25:38.189Z,46.50
2023-10-15T14:28:05.278Z,46.10
2023-10-15T14:30:34.126Z,46.10
2023-10-15T14:33:01.232Z,44.90
2023-10-15T14:35:28.323Z,42.40
2023-10-15T14:37:55.456Z,42.70
2023-10-15T14:40:22.797Z,43.30
2023-10-15T14:42:50.443Z,44.70
2023-10-15T14:45:19.051Z,46.00
2023-10-15T14:47:46.019Z,47.60
2023-10-15T14:50:13.827Z,48.50
2023-10-15T14:52:41.259Z,49.70
2023-10-15T14:55:08.336Z,50.60
2023-10-15T14:57:35.274Z,52.50
2023-10-15T15:00:05.255Z,55.00
2023-10-15T15:02:32.167Z,54.70
2023-10-15T15:04:59.157Z,54.90
2023-10-15T15:07:27.957Z,54.60
2023-10-15T15:09:54.807Z,54.40
2023-10-15T15:12:21.612Z,55.10
2023-10-15T15:14:48.360Z,55.80
2023-10-15T15:17:16.062Z,57.20
2023-10-15T15:19:47.456Z,56.60
2023-10-15T15:22:14.638Z,55.50
2023-10-15T15:24:42.592Z,54.50
2023-10-15T15:27:12.076Z,54.30
2023-10-15T15:29:39.002Z,54.00
2023-10-15T15:32:06.037Z,53.90
2023-10-15T15:34:33.031Z,53.30
2023-10-15T15:36:59.948Z,52.10
2023-10-15T15:39:26.798Z,51.10
2023-10-15T15:41:53.567Z,50.40
2023-10-15T15:44:22.781Z,50.60
2023-10-15T15:46:50.892Z,49.80
2023-10-15T15:49:17.899Z,49.00
2023-10-15T15:51:44.772Z,49.00
2023-10-15T15:54:11.651Z,48.70
2023-10-15T15:56:38.540Z,49.30
2023-10-15T15:59:06.727Z,49.90
2023-10-15T16:01:44.834Z,50.60
2023-10-15T16:04:12.680Z,51.30
2023-10-15T16:06:40.283Z,52.00
2023-10-15T16:09:11.247Z,52.70
2023-10-15T16:11:38.943Z,53.60
2023-10-15T16:14:06.019Z,54.50
2023-10-15T16:16:32.907Z,54.70
2023-10-15T16:18:59.813Z,54.50
2023-10-15T16:21:27.441Z,54.50
2023-10-15T16:23:55.368Z,55.00
2023-10-15T16:26:22.402Z,55.20
2023-10-15T16:28:49.491Z,55.40
2023-10-15T16:31:16.498Z,55.90
2023-10-15T16:33:43.445Z,56.40
2023-10-15T16:36:10.253Z,56.80
2023-10-15T16:38:37.108Z,57.20
2023-10-15T16:41:04.192Z,57.30
2023-10-15T16:43:31.099Z,57.90
2023-10-15T16:45:58.950Z,58.40
2023-10-15T16:48:26.511Z,58.90
2023-10-15T16:50:55.711Z,59.40
2023-10-15T16:53:25.202Z,59.60
2023-10-15T16:55:52.212Z,60.00
2023-10-15T16:58:19.097Z,60.40
2023-10-15T17:00:47.287Z,60.80
2023-10-15T17:03:14.155Z,61.30
2023-10-15T17:05:41.108Z,61.60
2023-10-15T17:08:08.676Z,62.00
2023-10-15T17:10:35.544Z,62.40
2023-10-15T17:13:02.353Z,62.90
2023-10-15T17:15:29.190Z,63.30
2023-10-15T17:17:56.059Z,63.80
2023-10-15T17:20:27.104Z,63.80
2023-10-15T17:22:55.039Z,64.10
2023-10-15T17:25:22.092Z,64.20
2023-10-15T17:27:49.014Z,64.30
2023-10-15T17:30:19.144Z,64.30
2023-10-15T17:32:47.347Z,64.50
2023-10-15T17:35:14.251Z,64.50
2023-10-15T17:37:41.250Z,64.40
2023-10-15T17:40:08.593Z,64.40
2023-10-15T17:42:37.275Z,64.70
2023-10-15T17:45:04.822Z,64.80
2023-10-15T17:47:31.744Z,65.10
2023-10-15T17:49:59.499Z,65.60
2023-10-15T17:52:26.411Z,66.00
2023-10-15T17:54:53.425Z,66.20
2023-10-15T17:57:21.493Z,66.30
2023-10-15T17:59:48.290Z,66.40
2023-10-15T18:02:15.126Z,66.60
2023-10-15T18:04:42.955Z,66.80
2023-10-15T18:07:10.698Z,67.00
2023-10-15T18:09:39.165Z,67.30
2023-10-15T18:12:08.409Z,67.50
2023-10-15T18:14:36.242Z,67.60
2023-10-15T18:17:03.646Z,67.70
2023-10-15T18:19:31.094Z,67.70
2023-10-15T18:21:57.881Z,67.90
2023-10-15T18:24:25.477Z,68.10
2023-10-15T18:26:52.666Z,68.40
2023-10-15T18:29:21.058Z,68.60
2023-10-15T18:31:47.862Z,68.60
2023-10-15T18:34:14.621Z,68.80
2023-10-15T18:36:41.564Z,68.90
2023-10-15T18:39:11.916Z,69.00
2023-10-15T18:41:39.941Z,69.10
2023-10-15T18:44:06.883Z,69.30
2023-10-15T18:46:33.814Z,69.70
2023-10-15T18:49:02.673Z,69.90
2023-10-15T18:51:37.574Z,70.20
2023-10-15T18:54:05.598Z,70.20
2023-10-15T18:56:35.651Z,70.10
2023-10-15T18:59:03.816Z,69.90
2023-10-15T19:01:32.901Z,69.70
2023-10-15T19:04:00.286Z,69.70
2023-10-15T19:06:27.418Z,69.60
2023-10-15T19:08:55.676Z,69.60
2023-10-15T19:11:23.020Z,69.50
2023-10-15T19:13:51.903Z,69.50
2023-10-15T19:16:18.813Z,69.40
2023-10-15T19:18:47.177Z,69.50
2023-10-15T19:21:14.189Z,69.60
2023-10-15T19:23:41.070Z,69.60
2023-10-15T19:26:09.425Z,69.90
2023-10-15T19:28:38.768Z,70.00
2023-10-15T19:31:06.675Z,70.20
2023-10-15T19:33:33.614Z,70.40
2023-10-15T19:36:01.990Z,70.40
2023-10-15T19:38:31.130Z,70.50
2023-10-15T19:41:01.544Z,70.50
2023-10-15T19:43:32.204Z,70.60
2023-10-15T19:45:59.930Z,70.80
2023-10-15T19:48:27.445Z,70.90
2023-10-15T19:50:54.333Z,71.10
2023-10-15T19:53:27.462Z,71.30
2023-10-15T19:55:54.947Z,71.60
2023-10-15T19:58:23.651Z,71.70
2023-10-15T20:00:51.118Z,71.80
2023-10-15T20:03:18.529Z,71.90
2023-10-15T20:05:47.444Z,72.00
2023-10-15T20:08:15.688Z,72.00
2023-10-15T20:10:43.516Z,72.10
2023-10-15T20:13:11.845Z,72.20
2023-10-15T20:15:39.268Z,72.50
2023-10-15T20:18:06.392Z,72.90
2023-10-15T20:20:33.356Z,73.30
2023-10-15T20:23:00.220Z,73.50
2023-10-15T20:25:27.142Z,73.70
2023-10-15T20:27:55.239Z,74.00
2023-10-15T20:30:22.267Z,74.00
2023-10-15T20:32:55.359Z,74.00
2023-10-15T20:35:24.475Z,74.10
2023-10-15T20:37:53.072Z,74.10
2023-10-15T20:40:21.830Z,74.00
2023-10-15T20:42:50.472Z,73.90
2023-10-15T20:45:20.202Z,73.80
2023-10-15T20:47:49.179Z,73.60
2023-10-15T20:50:18.368Z,73.40
2023-10-15T20:52:47.061Z,73.40
2023-10-15T20:55:15.081Z,73.30
2023-10-15T20:57:43.225Z,73.40
2023-10-15T21:00:12.744Z,73.40
2023-10-15T21:02:42.095Z,73.70
2023-10-15T21:05:13.189Z,74.00
2023-10-15T21:07:47.676Z,74.20
2023-10-15T21:10:16.045Z,74.40
2023-10-15T21:12:44.631Z,74.50
2023-10-15T21:15:13.669Z,74.60
2023-10-15T21:17:41.560Z,74.70
2023-10-15T21:20:11.238Z,74.90
2023-10-15T21:22:40.273Z,74.90
2023-10-15T21:25:11.193Z,75.10
2023-10-15T21:27:38.762Z,75.30
2023-10-15T21:30:13.084Z,75.40
2023-10-15T21:32:45.198Z,75.60
2023-10-15T21:35:21.089Z,75.70
2023-10-15T21:37:47.984Z,75.90
2023-10-15T21:40:17.665Z,76.00
2023-10-15T21:42:44.720Z,76.00
2023-10-15T21:45:12.880Z,75.90
2023-10-15T21:47:40.947Z,75.90
2023-10-15T21:50:08.262Z,76.10
2023-10-15T21:52:36.528Z,76.10
2023-10-15T21:55:05.749Z,75.80
2023-10-15T21:57:32.841Z,75.90
2023-10-15T22:00:00.285Z,75.90
2023-10-15T22:02:27.203Z,75.90
2023-10-15T22:04:54.062Z,76.00
2023-10-15T22:07:20.924Z,76.10
2023-10-15T22:09:48.935Z,76.10
2023-10-15T22:12:15.887Z,76.00
2023-10-15T22:14:46.907Z,76.10
2023-10-15T22:17:16.868Z,76.10
2023-10-15T22:19:44.207Z,76.00
2023-10-15T22:22:12.127Z,76.20
2023-10-15T22:24:42.538Z,76.30
2023-10-15T22:27:15.798Z,76.10
2023-10-15T22:29:43.376Z,75.90
2023-10-15T22:32:11.538Z,75.90
2023-10-15T22:34:39.203Z,75.80
2023-10-15T22:37:09.375Z,75.90
2023-10-15T22:39:40.006Z,76.30
2023-10-15T22:42:16.425Z,76.40
2023-10-15T22:44:47.166Z,76.30
2023-10-15T22:47:17.167Z,76.20
2023-10-15T22:49:45.796Z,76.10
2023-10-15T22:52:16.936Z,76.20
2023-10-15T22:54:44.031Z,76.40
2023-10-15T22:57:12.201Z,76.50
2023-10-15T22:59:39.377Z,76.70
2023-10-15T23:02:09.133Z,76.70
2023-10-15T23:04:36.250Z,76.70
2023-10-15T23:07:04.399Z,76.80
2023-10-15T23:09:31.438Z,76.90
2023-10-15T23:12:01.549Z,76.80
2023-10-15T23:14:28.444Z,76.60
2023-10-15T23:16:55.390Z,76.40
2023-10-15T23:19:27.539Z,76.30
2023-10-15T23:21:59.872Z,76.30
2023-10-15T23:24:27.267Z,76.40
2023-10-15T23:26:54.368Z,76.50
2023-10-15T23:29:25.576Z,76.60
2023-10-15T23:31:52.727Z,76.70
2023-10-15T23:34:19.695Z,76.80
2023-10-15T23:36:46.602Z,77.00
2023-10-15T23:39:20.397Z,77.10
2023-10-15T23:41:50.776Z,77.10
2023-10-15T23:44:22.668Z,77.00
2023-10-15T23:46:49.725Z,77.00
2023-10-15T23:49:26.516Z,77.10
2023-10-15T23:51:53.494Z,77.10
2023-10-15T23:54:27.791Z,77.40
2023-10-15T23:56:55.053Z,77.50
2023-10-15T23:59:22.734Z,77.60
